createdAt,value
2019-05-11T00:00:56.845Z,95564.98
2019-05-11T00:03:27.314Z,95548.80
2019-05-11T00:05:57.586Z,95573.30
2019-05-11T00:08:32.829Z,95573.14
2019-05-11T00:11:03.200Z,95564.98
2019-05-11T00:13:33.554Z,95540.30
2019-05-11T00:16:05.198Z,95535.73
2019-05-11T00:18:35.454Z,95531.30
2019-05-11T00:21:05.781Z,95515.62
2019-05-11T00:23:36.134Z,95521.36
2019-05-11T00:26:06.416Z,95515.62
2019-05-11T00:28:36.719Z,95534.42
2019-05-11T00:31:07.055Z,95521.68
2019-05-11T00:33:37.331Z,95510.75
2019-05-11T00:36:07.933Z,95496.37
2019-05-11T00:38:38.230Z,95488.87
2019-05-11T00:41:08.927Z,95475.14
2019-05-11T00:43:39.230Z,95496.37
2019-05-11T00:46:11.854Z,95482.51
2019-05-11T00:48:43.527Z,95476.14
2019-05-11T00:51:13.845Z,95486.76
2019-05-11T00:53:50.145Z,95490.50
2019-05-11T00:56:21.689Z,95525.43
2019-05-11T00:58:53.566Z,95601.27
2019-05-11T01:01:24.218Z,95642.47
2019-05-11T01:03:54.523Z,95745.02
2019-05-11T01:06:24.846Z,95830.95
2019-05-11T01:08:55.283Z,95825.39
2019-05-11T01:11:25.575Z,95849.61
2019-05-11T01:13:56.461Z,95964.06
2019-05-11T01:16:27.231Z,96055.66
2019-05-11T01:18:57.524Z,96088.44
2019-05-11T01:21:27.903Z,96130.28
2019-05-11T01:23:58.384Z,96226.21
2019-05-11T01:26:28.673Z,96256.11
2019-05-11T01:28:59.864Z,96309.59
2019-05-11T01:31:30.998Z,96326.84
2019-05-11T01:34:03.016Z,96353.80
2019-05-11T01:36:35.017Z,96381.88
2019-05-11T01:39:10.946Z,96451.53
2019-05-11T01:41:42.678Z,96513.98
2019-05-11T01:44:15.661Z,96567.58
2019-05-11T01:46:46.014Z,96579.91
2019-05-11T01:49:16.253Z,96668.56
2019-05-11T01:51:46.884Z,96697.52
2019-05-11T01:54:18.223Z,96726.02
2019-05-11T01:56:49.159Z,96753.81
2019-05-11T01:59:19.488Z,96770.78
2019-05-11T02:01:49.791Z,96795.99
2019-05-11T02:04:20.086Z,96769.45
2019-05-11T02:06:53.629Z,96802.09
2019-05-11T02:09:23.890Z,96824.64
2019-05-11T02:11:55.626Z,96838.80
2019-05-11T02:14:26.321Z,96776.20
2019-05-11T02:16:56.613Z,96801.27
2019-05-11T02:19:29.975Z,96757.30
2019-05-11T02:22:00.252Z,96739.03
2019-05-11T02:24:30.854Z,96760.11
2019-05-11T02:27:01.156Z,96745.13
2019-05-11T02:29:31.449Z,96764.70
2019-05-11T02:32:03.169Z,96832.88
2019-05-11T02:34:33.481Z,96820.38
2019-05-11T02:37:03.816Z,96825.98
2019-05-11T02:39:35.007Z,96828.77
2019-05-11T02:42:05.331Z,96880.15
2019-05-11T02:44:41.865Z,96860.88
2019-05-11T02:47:14.222Z,96847.39
2019-05-11T02:49:45.225Z,96854.30
2019-05-11T02:52:16.363Z,96847.71
2019-05-11T02:54:47.498Z,96830.93
2019-05-11T02:57:18.643Z,96839.82
2019-05-11T02:59:49.092Z,96848.06
2019-05-11T03:02:19.373Z,96861.37
2019-05-11T03:04:49.924Z,96861.23
2019-05-11T03:07:21.272Z,96887.24
2019-05-11T03:09:51.625Z,96887.56
2019-05-11T03:12:21.885Z,96893.84
2019-05-11T03:14:53.318Z,96936.03
2019-05-11T03:17:28.741Z,96925.14
2019-05-11T03:19:59.653Z,96899.92
2019-05-11T03:22:29.922Z,96924.81
2019-05-11T03:25:00.571Z,96899.45
2019-05-11T03:27:30.928Z,96905.38
2019-05-11T03:30:02.170Z,96932.42
2019-05-11T03:32:32.843Z,96922.17
2019-05-11T03:35:03.134Z,96950.88
2019-05-11T03:37:33.430Z,97005.58
2019-05-11T03:40:06.235Z,96968.34
2019-05-11T03:42:38.503Z,96988.44
2019-05-11T03:45:09.969Z,97038.87
2019-05-11T03:47:40.354Z,97009.69
2019-05-11T03:50:11.292Z,97038.05
2019-05-11T03:52:41.623Z,97043.33
2019-05-11T03:55:12.192Z,97009.86
2019-05-11T03:57:42.905Z,96992.89
2019-05-11T04:00:13.438Z,96993.39
2019-05-11T04:02:43.873Z,96966.05
2019-05-11T04:05:14.561Z,96997.01
2019-05-11T04:07:44.884Z,97074.52
2019-05-11T04:10:16.379Z,97095.63
2019-05-11T04:12:48.480Z,97031.63
2019-05-11T04:15:19.526Z,96998.34
2019-05-11T04:17:50.875Z,97006.42
2019-05-11T04:20:21.547Z,97060.67
2019-05-11T04:22:51.840Z,97099.59
2019-05-11T04:25:23.797Z,97148.73
2019-05-11T04:27:54.171Z,97079.14
2019-05-11T04:30:24.436Z,97045.16
2019-05-11T04:32:54.958Z,97006.92
2019-05-11T04:35:25.646Z,97035.09
2019-05-11T04:37:55.969Z,97123.98
2019-05-11T04:40:26.243Z,97100.58
2019-05-11T04:42:56.651Z,97223.83
2019-05-11T04:45:26.918Z,97301.27
2019-05-11T04:47:58.426Z,97236.20
2019-05-11T04:50:28.700Z,97218.39
2019-05-11T04:52:59.006Z,97192.81
2019-05-11T04:55:29.335Z,97261.12
2019-05-11T04:58:00.076Z,97248.25
2019-05-11T05:00:50.721Z,97318.94
2019-05-11T05:03:21.294Z,97382.34
2019-05-11T05:05:52.086Z,97365.34
2019-05-11T05:08:26.706Z,97358.07
2019-05-11T05:10:58.676Z,97420.04
2019-05-11T05:13:29.520Z,97418.23
2019-05-11T05:15:59.464Z,97419.88
2019-05-11T05:18:29.828Z,97476.05
2019-05-11T05:21:00.108Z,97525.34
2019-05-11T05:23:31.552Z,97565.34
2019-05-11T05:26:02.350Z,97679.84
2019-05-11T05:28:33.328Z,97840.47
2019-05-11T05:31:06.525Z,97838.47
2019-05-11T05:33:36.816Z,98128.63
2019-05-11T05:36:07.687Z,98189.68
2019-05-11T05:38:38.131Z,98235.69
2019-05-11T05:41:08.454Z,98515.03
2019-05-11T05:43:39.180Z,98566.11
2019-05-11T05:46:10.568Z,98662.09
2019-05-11T05:48:40.889Z,98686.74
2019-05-11T05:51:11.514Z,98955.95
2019-05-11T05:53:44.989Z,99425.42
2019-05-11T05:56:18.346Z,100118.87
2019-05-11T05:58:50.364Z,100644.21
2019-05-11T06:01:23.002Z,100843.59
2019-05-11T06:03:53.359Z,100987.82
2019-05-11T06:06:23.664Z,100723.12
2019-05-11T06:08:54.004Z,100537.45
2019-05-11T06:11:25.105Z,100310.16
2019-05-11T06:13:55.540Z,100224.56
2019-05-11T06:16:25.872Z,100080.47
2019-05-11T06:18:56.282Z,100094.92
2019-05-11T06:21:26.693Z,100101.95
2019-05-11T06:23:57.061Z,100134.52
2019-05-11T06:26:29.717Z,100420.70
2019-05-11T06:29:00.070Z,101015.52
2019-05-11T06:31:32.047Z,101536.06
2019-05-11T06:34:02.565Z,101782.78
2019-05-11T06:36:37.184Z,102043.07
2019-05-11T06:39:11.825Z,102246.40
2019-05-11T06:41:42.921Z,102097.92
2019-05-11T06:44:13.243Z,101723.78
2019-05-11T06:46:43.583Z,100993.30
2019-05-11T06:49:13.904Z,101094.36
2019-05-11T06:51:44.694Z,101558.30
2019-05-11T06:54:18.324Z,101666.20
2019-05-11T06:56:51.048Z,101627.98
2019-05-11T06:59:23.973Z,102018.20
2019-05-11T07:01:56.007Z,102601.36
2019-05-11T07:04:26.365Z,102863.85
2019-05-11T07:06:57.068Z,103137.55
2019-05-11T07:09:27.596Z,103405.66
2019-05-11T07:11:57.960Z,103306.66
2019-05-11T07:14:28.609Z,103061.64
2019-05-11T07:17:00.507Z,103246.05
2019-05-11T07:19:37.649Z,103671.09
2019-05-11T07:22:08.366Z,103637.88
2019-05-11T07:24:39.238Z,103470.78
2019-05-11T07:27:09.689Z,103488.91
2019-05-11T07:29:40.018Z,103655.66
2019-05-11T07:32:21.934Z,103755.81
2019-05-11T07:34:42.755Z,103812.27
2019-05-11T07:37:13.413Z,104151.87
2019-05-11T07:39:43.726Z,104334.13
2019-05-11T07:42:14.112Z,104328.48
2019-05-11T07:44:44.514Z,104416.35
2019-05-11T07:47:15.013Z,104715.29
2019-05-11T07:49:45.401Z,104718.50
2019-05-11T07:52:18.018Z,104707.33
2019-05-11T07:54:52.523Z,104584.48
2019-05-11T07:57:19.749Z,104432.45
2019-05-11T07:59:51.254Z,104148.18
2019-05-11T08:02:21.554Z,103944.66
2019-05-11T08:04:51.858Z,103776.69
2019-05-11T08:07:22.737Z,103460.14
2019-05-11T08:09:53.031Z,103386.05
2019-05-11T08:12:23.559Z,103336.72
2019-05-11T08:15:02.629Z,102897.89
2019-05-11T08:17:28.488Z,102544.25
2019-05-11T08:19:59.383Z,103117.20
2019-05-11T08:22:32.592Z,103367.08
2019-05-11T08:25:09.142Z,103544.34
2019-05-11T08:27:37.892Z,104158.04
2019-05-11T08:30:09.941Z,104453.57
2019-05-11T08:32:43.068Z,104784.66
2019-05-11T08:35:13.703Z,104806.73
2019-05-11T08:37:44.331Z,104772.61
2019-05-11T08:40:18.271Z,105092.34
2019-05-11T08:42:49.125Z,105165.02
2019-05-11T08:45:24.473Z,105202.98
2019-05-11T08:47:52.921Z,105423.23
2019-05-11T08:50:24.457Z,105922.13
2019-05-11T08:52:54.829Z,106067.64
2019-05-11T08:55:25.540Z,106029.37
2019-05-11T08:57:58.370Z,105941.56
2019-05-11T09:00:29.368Z,105968.38
2019-05-11T09:02:59.723Z,106147.20
2019-05-11T09:05:30.073Z,106675.38
2019-05-11T09:08:02.423Z,106675.38
2019-05-11T09:10:36.956Z,106424.83
2019-05-11T09:13:10.406Z,106059.14
2019-05-11T09:15:40.994Z,105162.66
2019-05-11T09:18:11.422Z,104559.73
2019-05-11T09:20:42.175Z,103773.17
2019-05-11T09:23:12.478Z,103390.17
2019-05-11T09:25:43.223Z,102938.03
2019-05-11T09:28:18.294Z,102960.42
2019-05-11T09:30:48.720Z,103243.88
2019-05-11T09:33:21.104Z,103287.40
2019-05-11T09:35:53.528Z,103251.52
2019-05-11T09:38:24.150Z,103523.10
2019-05-11T09:40:54.633Z,103467.08
2019-05-11T09:43:28.335Z,102949.48
2019-05-11T09:45:58.881Z,102515.55
2019-05-11T09:48:31.523Z,102273.62
2019-05-11T09:51:02.033Z,102035.09
2019-05-11T09:53:32.773Z,102069.72
2019-05-11T09:56:03.615Z,102127.42
2019-05-11T09:58:35.057Z,102070.81
2019-05-11T10:01:08.809Z,101900.77
2019-05-11T10:03:39.725Z,101897.23
2019-05-11T10:06:10.055Z,101945.70
2019-05-11T10:08:45.508Z,102068.48
2019-05-11T10:11:15.881Z,102192.69
2019-05-11T10:13:47.739Z,102103.38
2019-05-11T10:16:18.827Z,102133.65
2019-05-11T10:18:49.632Z,103485.66
2019-05-11T10:21:20.414Z,104229.91
2019-05-11T10:23:54.665Z,104455.05
2019-05-11T10:26:24.951Z,105220.64
2019-05-11T10:28:58.553Z,106146.33
2019-05-11T10:31:31.972Z,107074.48
2019-05-11T10:34:04.504Z,106607.95
2019-05-11T10:36:34.885Z,105746.31
2019-05-11T10:39:07.988Z,104688.06
2019-05-11T10:41:38.847Z,104216.34
2019-05-11T10:44:09.679Z,104031.69
2019-05-11T10:46:40.006Z,103831.91
2019-05-11T10:49:10.626Z,104319.95
2019-05-11T10:51:44.606Z,104130.09
2019-05-11T10:54:15.382Z,104087.25
2019-05-11T10:56:48.020Z,103343.55
2019-05-11T10:59:18.782Z,103240.88
2019-05-11T11:01:49.847Z,103087.03
2019-05-11T11:04:20.208Z,102861.19
2019-05-11T11:06:55.526Z,102795.14
2019-05-11T11:09:28.147Z,102504.59
2019-05-11T11:11:58.760Z,102553.07
2019-05-11T11:14:29.393Z,102599.38
2019-05-11T11:17:00.052Z,102559.61
2019-05-11T11:19:30.401Z,102715.27
2019-05-11T11:22:34.988Z,102603.31
2019-05-11T11:24:40.402Z,102437.95
2019-05-11T11:27:10.942Z,102314.30
2019-05-11T11:29:42.541Z,102216.08
2019-05-11T11:32:12.855Z,102282.89
2019-05-11T11:34:44.510Z,102324.48
2019-05-11T11:37:17.527Z,102253.84
2019-05-11T11:39:48.250Z,102181.02
2019-05-11T11:42:19.686Z,102002.42
2019-05-11T11:44:50.476Z,101915.63
2019-05-11T11:47:23.942Z,101846.52
2019-05-11T11:49:54.485Z,101732.52
2019-05-11T11:52:27.728Z,101627.19
2019-05-11T11:54:58.675Z,101589.55
2019-05-11T11:57:30.206Z,101520.53
2019-05-11T12:00:00.615Z,101470.48
2019-05-11T12:02:31.627Z,101466.09
2019-05-11T12:05:01.975Z,101316.84
2019-05-11T12:07:35.096Z,101341.34
2019-05-11T12:10:07.627Z,101454.97
2019-05-11T12:12:38.959Z,101472.19
2019-05-11T12:15:14.689Z,101453.63
2019-05-11T12:17:45.517Z,101531.73
2019-05-11T12:20:18.072Z,101557.29
2019-05-11T12:22:48.682Z,101441.79
2019-05-11T12:25:19.519Z,101449.59
2019-05-11T12:27:49.980Z,101391.44
2019-05-11T12:30:20.718Z,101479.00
2019-05-11T12:32:51.347Z,101607.22
2019-05-11T12:35:21.477Z,101643.75
2019-05-11T12:37:53.213Z,101554.10
2019-05-11T12:40:23.533Z,101462.14
2019-05-11T12:42:53.840Z,101427.98
2019-05-11T12:45:25.254Z,101314.72
2019-05-11T12:47:58.667Z,101267.75
2019-05-11T12:50:29.047Z,101259.33
2019-05-11T12:53:00.159Z,101279.08
2019-05-11T12:55:34.618Z,101250.55
2019-05-11T12:58:05.619Z,101220.82
2019-05-11T13:00:36.051Z,101085.80
2019-05-11T13:03:08.042Z,101006.12
2019-05-11T13:05:40.776Z,101014.91
2019-05-11T13:08:11.629Z,101133.90
2019-05-11T13:10:48.013Z,101168.39
2019-05-11T13:13:19.998Z,101215.45
2019-05-11T13:15:50.308Z,101389.81
2019-05-11T13:18:20.614Z,101502.41
2019-05-11T13:20:50.905Z,101448.83
2019-05-11T13:23:23.482Z,101490.92
2019-05-11T13:25:53.878Z,101344.83
2019-05-11T13:28:24.201Z,101312.75
2019-05-11T13:30:54.877Z,101335.41
2019-05-11T13:33:28.050Z,101367.85
2019-05-11T13:35:58.102Z,101443.44
2019-05-11T13:38:29.679Z,101413.67
2019-05-11T13:40:59.995Z,101455.46
2019-05-11T13:43:33.415Z,101336.27
2019-05-11T13:46:05.208Z,101368.70
2019-05-11T13:48:38.634Z,101364.81
2019-05-11T13:51:08.966Z,101359.92
2019-05-11T13:53:39.292Z,101356.02
2019-05-11T13:56:12.580Z,101318.84
2019-05-11T13:58:42.924Z,101253.81
2019-05-11T14:01:13.327Z,101196.91
2019-05-11T14:03:44.014Z,101064.23
2019-05-11T14:06:18.415Z,100923.92
2019-05-11T14:08:48.375Z,100857.48
2019-05-11T14:11:19.648Z,100949.58
2019-05-11T14:13:53.399Z,100844.70
2019-05-11T14:16:27.727Z,100622.71
2019-05-11T14:18:58.067Z,100383.20
2019-05-11T14:21:28.692Z,100187.47
2019-05-11T14:23:59.271Z,100076.33
2019-05-11T14:26:29.945Z,99971.47
2019-05-11T14:29:00.228Z,99781.08
2019-05-11T14:31:32.412Z,99729.16
2019-05-11T14:34:03.019Z,99542.49
2019-05-11T14:36:33.687Z,99466.89
2019-05-11T14:39:08.413Z,99400.16
2019-05-11T14:41:38.497Z,99336.49
2019-05-11T14:44:09.136Z,99296.20
2019-05-11T14:46:40.892Z,99335.50
2019-05-11T14:49:11.173Z,99332.49
2019-05-11T14:51:42.979Z,99383.13
2019-05-11T14:54:13.611Z,99366.09
2019-05-11T14:56:45.384Z,99326.32
2019-05-11T14:59:18.289Z,99228.61
2019-05-11T15:01:52.152Z,99205.23
2019-05-11T15:04:22.761Z,99186.20
2019-05-11T15:06:53.494Z,99122.43
2019-05-11T15:09:24.260Z,99061.88
2019-05-11T15:11:54.867Z,99032.48
2019-05-11T15:14:28.674Z,99050.50
2019-05-11T15:17:01.223Z,99026.78
2019-05-11T15:19:31.508Z,99076.21
2019-05-11T15:22:02.171Z,99090.89
2019-05-11T15:24:34.162Z,99042.14
2019-05-11T15:27:08.014Z,99018.11
2019-05-11T15:29:37.860Z,99037.50
2019-05-11T15:32:08.597Z,99041.83
2019-05-11T15:34:38.888Z,99100.25
2019-05-11T15:37:10.072Z,99049.67
2019-05-11T15:39:40.756Z,99006.09
2019-05-11T15:42:16.913Z,98976.75
2019-05-11T15:44:45.065Z,98949.75
2019-05-11T15:47:15.834Z,98962.76
2019-05-11T15:49:48.458Z,98996.44
2019-05-11T15:52:18.995Z,99006.78
2019-05-11T15:54:49.335Z,98988.27
2019-05-11T15:57:19.616Z,98988.76
2019-05-11T15:59:50.301Z,98996.59
2019-05-11T16:02:21.256Z,98982.76
2019-05-11T16:04:51.549Z,98946.38
2019-05-11T16:07:21.904Z,98972.26
2019-05-11T16:09:53.366Z,98992.75
2019-05-11T16:12:25.210Z,98964.24
2019-05-11T16:14:57.593Z,98962.91
2019-05-11T16:17:28.939Z,99012.94
2019-05-11T16:20:00.870Z,99092.38
2019-05-11T16:22:31.763Z,99054.16
2019-05-11T16:25:02.091Z,99094.05
2019-05-11T16:27:33.421Z,99090.55
2019-05-11T16:30:03.738Z,99108.40
2019-05-11T16:32:34.702Z,99108.89
2019-05-11T16:35:08.783Z,99070.70
2019-05-11T16:37:38.911Z,99088.88
2019-05-11T16:40:10.061Z,99077.20
2019-05-11T16:42:40.879Z,99090.70
2019-05-11T16:45:11.872Z,99039.14
2019-05-11T16:47:42.161Z,99017.59
2019-05-11T16:50:12.968Z,99014.42
2019-05-11T16:52:43.354Z,99022.61
2019-05-11T16:55:13.774Z,99051.66
2019-05-11T16:57:48.034Z,99094.20
2019-05-11T17:00:17.922Z,99027.59
2019-05-11T17:02:49.976Z,99003.75
2019-05-11T17:05:26.371Z,99013.75
2019-05-11T17:07:52.379Z,98942.02
2019-05-11T17:10:33.055Z,98954.03
2019-05-11T17:13:03.368Z,98957.69
2019-05-11T17:15:33.683Z,98917.36
2019-05-11T17:18:03.976Z,98933.52
2019-05-11T17:20:35.920Z,98917.52
2019-05-11T17:23:06.573Z,98891.03
2019-05-11T17:25:37.907Z,98879.36
2019-05-11T17:28:10.252Z,98851.67
2019-05-11T17:30:43.349Z,98861.70
2019-05-11T17:33:13.737Z,98880.02
2019-05-11T17:35:47.891Z,98848.00
2019-05-11T17:38:18.422Z,98838.34
2019-05-11T17:40:48.956Z,98891.84
2019-05-11T17:43:20.758Z,98944.84
2019-05-11T17:45:51.314Z,98987.37
2019-05-11T17:48:21.725Z,98989.05
2019-05-11T17:50:53.202Z,98951.50
2019-05-11T17:53:23.655Z,98900.99
2019-05-11T17:55:54.357Z,98877.67
2019-05-11T17:58:25.046Z,98883.17
2019-05-11T18:00:55.363Z,98913.31
2019-05-11T18:03:27.708Z,98850.31
2019-05-11T18:05:59.078Z,98835.66
2019-05-11T18:08:30.917Z,98810.33
2019-05-11T18:11:03.114Z,98845.31
2019-05-11T18:13:33.421Z,98815.00
2019-05-11T18:16:05.233Z,98821.49
2019-05-11T18:18:38.722Z,98811.01
2019-05-11T18:21:09.017Z,98811.16
2019-05-11T18:23:39.908Z,98776.69
2019-05-11T18:26:10.245Z,98726.05
2019-05-11T18:28:40.655Z,98702.91
2019-05-11T18:31:11.056Z,98672.62
2019-05-11T18:33:41.405Z,98736.03
2019-05-11T18:36:14.015Z,98686.09
2019-05-11T18:38:44.631Z,98641.63
2019-05-11T18:41:17.317Z,98624.33
2019-05-11T18:43:48.321Z,98549.65
2019-05-11T18:46:20.589Z,98500.90
2019-05-11T18:48:52.608Z,98431.89
2019-05-11T18:51:23.086Z,98382.34
2019-05-11T18:53:53.446Z,98330.84
2019-05-11T18:56:23.889Z,98274.69
2019-05-11T18:58:54.316Z,98317.03
2019-05-11T19:01:24.700Z,98279.50
2019-05-11T19:03:55.416Z,98220.56
2019-05-11T19:06:28.575Z,98164.28
2019-05-11T19:08:59.320Z,98177.39
2019-05-11T19:11:29.730Z,98131.93
2019-05-11T19:14:01.794Z,98104.36
2019-05-11T19:16:33.704Z,98094.91
2019-05-11T19:19:04.285Z,98140.55
2019-05-11T19:21:34.726Z,98196.80
2019-05-11T19:24:06.184Z,98218.54
2019-05-11T19:26:41.110Z,98193.98
2019-05-11T19:29:14.135Z,98226.55
2019-05-11T19:31:44.676Z,98304.23
2019-05-11T19:34:23.530Z,98286.30
2019-05-11T19:36:53.957Z,98279.33
2019-05-11T19:39:24.319Z,98272.84
2019-05-11T19:41:58.096Z,98299.25
2019-05-11T19:44:30.408Z,98247.61
2019-05-11T19:47:00.700Z,98220.19
2019-05-11T19:49:32.502Z,98211.41
2019-05-11T19:52:02.859Z,98211.89
2019-05-11T19:54:35.114Z,98200.28
2019-05-11T19:57:08.357Z,98209.90
2019-05-11T19:59:38.846Z,98202.59
2019-05-11T20:02:09.855Z,98203.92
2019-05-11T20:04:40.531Z,98174.89
2019-05-11T20:07:12.574Z,98151.48
2019-05-11T20:09:45.894Z,98121.27
2019-05-11T20:12:18.015Z,98115.62
2019-05-11T20:14:50.446Z,98100.70
2019-05-11T20:17:22.780Z,98078.81
2019-05-11T20:19:53.203Z,98073.17
2019-05-11T20:22:24.901Z,98100.70
2019-05-11T20:24:55.517Z,98179.70
2019-05-11T20:27:28.266Z,98116.95
2019-05-11T20:29:58.630Z,98072.50
2019-05-11T20:32:29.015Z,98107.66
2019-05-11T20:34:59.316Z,98061.23
2019-05-11T20:37:29.613Z,98027.04
2019-05-11T20:40:00.559Z,98003.51
2019-05-11T20:42:34.342Z,98007.32
2019-05-11T20:45:07.598Z,97976.98
2019-05-11T20:47:43.911Z,97988.92
2019-05-11T20:50:15.522Z,97979.97
2019-05-11T20:52:48.017Z,98020.08
2019-05-11T20:55:18.624Z,98046.80
2019-05-11T20:57:49.124Z,98056.59
2019-05-11T21:00:20.345Z,98041.33
2019-05-11T21:02:51.409Z,98081.29
2019-05-11T21:05:27.195Z,98029.69
2019-05-11T21:08:00.013Z,97996.22
2019-05-11T21:10:31.423Z,97956.10
2019-05-11T21:13:04.736Z,97902.39
2019-05-11T21:15:38.324Z,97908.36
2019-05-11T21:18:11.573Z,97899.24
2019-05-11T21:20:41.987Z,97824.05
2019-05-11T21:23:13.178Z,97810.48
2019-05-11T21:25:44.200Z,97765.38
2019-05-11T21:28:16.769Z,97722.85
2019-05-11T21:30:50.226Z,97685.09
2019-05-11T21:33:20.624Z,97701.84
2019-05-11T21:35:50.959Z,97662.92
2019-05-11T21:38:21.591Z,97658.46
2019-05-11T21:40:52.028Z,97624.55
2019-05-11T21:43:22.439Z,97592.47
2019-05-11T21:45:53.111Z,97591.15
2019-05-11T21:48:23.502Z,97642.25
2019-05-11T21:50:54.487Z,97689.40
2019-05-11T21:53:25.217Z,97673.68
2019-05-11T21:55:55.725Z,97648.38
2019-05-11T21:58:28.541Z,97677.16
2019-05-11T22:00:59.805Z,97617.61
2019-05-11T22:03:31.099Z,97568.97
2019-05-11T22:06:02.575Z,97579.05
2019-05-11T22:08:32.878Z,97576.41
2019-05-11T22:11:03.171Z,97583.19
2019-05-11T22:13:35.064Z,97562.69
2019-05-11T22:16:05.681Z,97569.30
2019-05-11T22:18:38.059Z,97595.25
2019-05-11T22:21:08.704Z,97655.48
2019-05-11T22:23:42.834Z,97611.82
2019-05-11T22:26:14.661Z,97565.83
2019-05-11T22:28:47.637Z,97545.66
2019-05-11T22:31:19.444Z,97544.17
2019-05-11T22:33:51.281Z,97551.77
2019-05-11T22:36:21.873Z,97522.69
2019-05-11T22:38:53.998Z,97520.04
2019-05-11T22:41:24.632Z,97512.77
2019-05-11T22:43:56.215Z,97517.39
2019-05-11T22:46:28.078Z,97522.69
2019-05-11T22:48:59.985Z,97502.84
2019-05-11T22:51:30.572Z,97509.95
2019-05-11T22:54:01.005Z,97459.20
2019-05-11T22:56:33.099Z,97513.27
2019-05-11T22:59:04.110Z,97514.09
2019-05-11T23:01:37.938Z,97597.56
2019-05-11T23:04:08.846Z,97597.73
2019-05-11T23:06:40.590Z,97618.27
2019-05-11T23:09:12.866Z,97512.44
2019-05-11T23:11:43.051Z,97523.67
2019-05-11T23:14:17.731Z,97536.90
2019-05-11T23:16:49.917Z,97443.67
2019-05-11T23:19:20.709Z,97481.66
2019-05-11T23:21:51.309Z,97430.78
2019-05-11T23:24:21.569Z,97432.44
2019-05-11T23:26:52.946Z,97402.34
2019-05-11T23:29:23.702Z,97411.63
2019-05-11T23:31:53.989Z,97440.53
2019-05-11T23:34:24.579Z,97344.22
2019-05-11T23:36:58.986Z,97366.17
2019-05-11T23:39:28.828Z,97266.77
2019-05-11T23:41:59.201Z,97292.38
2019-05-11T23:44:29.504Z,97217.27
2019-05-11T23:46:59.792Z,97238.72
2019-05-11T23:49:31.106Z,97264.13
2019-05-11T23:52:01.602Z,97206.38
2019-05-11T23:54:32.266Z,97231.30
2019-05-11T23:57:02.576Z,97198.63
2019-05-11T23:59:34.229Z,97188.90
